createdAt,value
2022-08-19T00:04:53.814Z,17.63
2022-08-19T00:09:56.893Z,17.65
2022-08-19T00:15:04.334Z,17.65
2022-08-19T00:20:11.784Z,17.65
2022-08-19T00:25:14.258Z,17.62
2022-08-19T00:30:17.736Z,17.62
2022-08-19T00:35:19.584Z,17.60
2022-08-19T00:40:21.990Z,17.59
2022-08-19T00:45:26.881Z,17.55
2022-08-19T00:50:29.152Z,17.53
2022-08-19T00:55:32.175Z,17.53
2022-08-19T01:00:37.966Z,17.53
2022-08-19T01:05:48.413Z,17.52
2022-08-19T01:10:59.883Z,17.52
2022-08-19T01:16:08.406Z,17.49
2022-08-19T01:21:34.689Z,17.45
2022-08-19T01:26:45.818Z,17.44
2022-08-19T01:31:53.098Z,17.42
2022-08-19T01:36:54.980Z,17.40
2022-08-19T01:41:56.838Z,17.35
2022-08-19T01:47:04.734Z,17.38
2022-08-19T01:52:07.090Z,17.36
2022-08-19T01:57:13.686Z,17.35
2022-08-19T02:02:23.025Z,17.35
2022-08-19T02:07:29.289Z,17.32
2022-08-19T02:12:33.168Z,17.30
2022-08-19T02:17:35.002Z,17.30
2022-08-19T02:22:36.843Z,17.27
2022-08-19T02:27:39.651Z,17.25
2022-08-19T02:32:46.040Z,17.25
2022-08-19T02:38:10.449Z,17.22
2022-08-19T02:43:12.340Z,17.20
2022-08-19T02:48:21.421Z,17.16
2022-08-19T02:53:27.051Z,17.13
2022-08-19T02:58:31.464Z,17.11
2022-08-19T03:03:35.432Z,17.06
2022-08-19T03:08:38.366Z,16.94
2022-08-19T03:13:44.267Z,16.86
2022-08-19T03:18:50.778Z,16.74
2022-08-19T03:23:56.485Z,16.62
2022-08-19T03:29:05.585Z,16.48
2022-08-19T03:34:12.670Z,16.39
2022-08-19T03:39:18.522Z,16.28
2022-08-19T03:44:26.468Z,16.15
2022-08-19T03:49:31.072Z,16.08
2022-08-19T03:54:35.484Z,16.00
2022-08-19T03:59:42.709Z,15.94
2022-08-19T04:04:45.037Z,15.85
2022-08-19T04:09:46.831Z,15.79
2022-08-19T04:14:50.922Z,15.76
2022-08-19T04:19:52.824Z,15.72
2022-08-19T04:24:56.629Z,15.64
2022-08-19T04:30:04.121Z,15.60
2022-08-19T04:35:17.517Z,15.73
2022-08-19T04:40:39.312Z,15.60
2022-08-19T04:45:49.523Z,15.47
2022-08-19T04:51:07.734Z,15.38
2022-08-19T04:56:11.046Z,15.35
2022-08-19T05:01:24.103Z,15.37
2022-08-19T05:06:29.709Z,15.36
2022-08-19T05:11:34.960Z,15.34
2022-08-19T05:16:36.899Z,15.38
2022-08-19T05:21:59.201Z,15.36
2022-08-19T05:27:01.715Z,15.48
2022-08-19T05:32:10.403Z,15.55
2022-08-19T05:37:12.192Z,15.60
2022-08-19T05:42:16.540Z,15.65
2022-08-19T05:47:23.091Z,15.67
2022-08-19T05:52:31.683Z,15.68
2022-08-19T05:57:33.645Z,15.64
2022-08-19T06:02:40.607Z,15.70
2022-08-19T06:07:45.879Z,15.72
2022-08-19T06:12:47.759Z,15.76
2022-08-19T06:17:54.294Z,15.84
2022-08-19T06:22:56.145Z,15.87
2022-08-19T06:28:14.758Z,15.85
2022-08-19T06:33:17.338Z,15.92
2022-08-19T06:38:24.493Z,16.03
2022-08-19T06:43:29.153Z,16.11
2022-08-19T06:48:31.575Z,16.13
2022-08-19T06:53:35.044Z,16.11
2022-08-19T06:58:39.144Z,16.15
2022-08-19T07:03:43.169Z,16.22
2022-08-19T07:08:48.659Z,16.35
2022-08-19T07:13:52.193Z,16.54
2022-08-19T07:18:57.496Z,16.72
2022-08-19T07:24:05.346Z,16.85
2022-08-19T07:29:12.234Z,17.13
2022-08-19T07:34:19.928Z,17.36
2022-08-19T07:39:28.555Z,17.55
2022-08-19T07:44:31.444Z,17.71
2022-08-19T07:49:38.439Z,17.96
2022-08-19T07:54:44.153Z,18.19
2022-08-19T07:59:46.899Z,18.44
2022-08-19T08:05:08.301Z,18.74
2022-08-19T08:10:20.748Z,18.92
2022-08-19T08:15:23.272Z,19.08
2022-08-19T08:20:30.566Z,19.19
2022-08-19T08:25:36.441Z,19.30
2022-08-19T08:30:45.086Z,19.42
2022-08-19T08:35:47.567Z,19.62
2022-08-19T08:40:55.749Z,19.72
2022-08-19T08:46:31.001Z,19.86
2022-08-19T08:51:59.355Z,20.14
2022-08-19T08:57:13.908Z,20.32
2022-08-19T09:02:20.746Z,20.30
2022-08-19T09:07:35.268Z,20.06
2022-08-19T09:13:09.427Z,20.32
2022-08-19T09:18:15.182Z,20.63
2022-08-19T09:23:26.541Z,20.96
2022-08-19T09:28:34.043Z,20.92
2022-08-19T09:33:36.439Z,20.82
2022-08-19T09:38:43.409Z,20.65
2022-08-19T09:43:53.076Z,20.63
2022-08-19T09:49:06.266Z,20.75
2022-08-19T09:54:11.222Z,21.01
2022-08-19T09:59:13.431Z,21.10
2022-08-19T10:04:20.472Z,21.06
2022-08-19T10:09:35.067Z,20.98
2022-08-19T10:14:37.961Z,21.07
2022-08-19T10:19:41.913Z,21.26
2022-08-19T10:24:58.697Z,21.31
2022-08-19T10:30:02.113Z,21.34
2022-08-19T10:35:09.047Z,21.49
2022-08-19T10:40:14.631Z,21.58
2022-08-19T10:45:16.504Z,21.87
2022-08-19T10:50:36.623Z,22.00
2022-08-19T10:56:04.290Z,22.04
2022-08-19T11:01:09.127Z,22.33
2022-08-19T11:06:10.960Z,22.31
2022-08-19T11:11:13.350Z,22.32
2022-08-19T11:16:17.937Z,22.38
2022-08-19T11:21:25.481Z,22.77
2022-08-19T11:26:33.497Z,22.84
2022-08-19T11:31:37.235Z,22.70
2022-08-19T11:36:46.824Z,23.19
2022-08-19T11:41:51.352Z,23.79
2022-08-19T11:46:53.744Z,24.01
2022-08-19T11:51:55.515Z,23.92
2022-08-19T11:56:57.274Z,24.02
2022-08-19T12:02:00.167Z,24.57
2022-08-19T12:07:02.890Z,24.78
2022-08-19T12:12:05.174Z,25.09
2022-08-19T12:17:12.449Z,25.37
2022-08-19T12:22:22.388Z,25.66
2022-08-19T12:27:40.292Z,26.15
2022-08-19T12:32:48.111Z,26.42
2022-08-19T12:37:56.977Z,26.83
2022-08-19T12:43:00.280Z,27.06
2022-08-19T12:48:02.127Z,27.29
2022-08-19T12:53:23.963Z,27.81
2022-08-19T12:58:27.506Z,28.37
2022-08-19T13:03:30.906Z,29.04
2022-08-19T13:08:33.652Z,29.39
2022-08-19T13:13:37.869Z,27.93
2022-08-19T13:18:48.286Z,27.39
2022-08-19T13:23:53.934Z,26.79
2022-08-19T13:29:14.714Z,27.44
2022-08-19T13:34:18.662Z,28.42
2022-08-19T13:39:26.117Z,28.96
2022-08-19T13:44:30.484Z,29.50
2022-08-19T13:49:37.207Z,29.88
2022-08-19T13:54:38.988Z,30.17
2022-08-19T13:59:42.966Z,30.53
2022-08-19T14:04:45.045Z,30.85
2022-08-19T14:09:46.811Z,31.13
2022-08-19T14:14:53.460Z,31.43
2022-08-19T14:20:10.926Z,31.57
2022-08-19T14:25:15.837Z,31.41
2022-08-19T14:30:20.948Z,31.29
2022-08-19T14:35:25.842Z,31.69
2022-08-19T14:40:31.203Z,31.80
2022-08-19T14:45:36.730Z,32.10
2022-08-19T14:50:39.360Z,32.25
2022-08-19T14:55:46.451Z,32.51
2022-08-19T15:00:50.294Z,33.10
2022-08-19T15:05:58.316Z,33.88
2022-08-19T15:11:00.885Z,34.36
2022-08-19T15:16:05.542Z,34.79
2022-08-19T15:21:13.442Z,34.99
2022-08-19T15:26:23.109Z,34.98
2022-08-19T15:31:28.165Z,33.68
2022-08-19T15:36:32.732Z,34.46
2022-08-19T15:41:34.887Z,34.97
2022-08-19T15:46:41.494Z,35.46
2022-08-19T15:51:45.321Z,35.52
2022-08-19T15:57:07.526Z,35.47
2022-08-19T16:02:32.644Z,35.76
2022-08-19T16:07:34.433Z,35.41
2022-08-19T16:12:41.387Z,35.13
2022-08-19T16:17:43.595Z,34.47
2022-08-19T16:22:59.352Z,33.02
2022-08-19T16:28:08.551Z,31.65
2022-08-19T16:33:10.801Z,30.61
2022-08-19T16:38:13.597Z,29.91
2022-08-19T16:43:17.568Z,29.27
2022-08-19T16:48:23.977Z,28.75
2022-08-19T16:53:31.816Z,28.42
2022-08-19T16:58:36.792Z,28.01
2022-08-19T17:03:41.245Z,27.68
2022-08-19T17:08:48.712Z,27.42
2022-08-19T17:13:56.683Z,27.16
2022-08-19T17:19:01.679Z,26.83
2022-08-19T17:24:08.690Z,26.61
2022-08-19T17:29:12.921Z,26.40
2022-08-19T17:34:17.309Z,26.11
2022-08-19T17:39:19.407Z,25.81
2022-08-19T17:44:25.597Z,25.56
2022-08-19T17:49:30.322Z,25.35
2022-08-19T17:54:37.329Z,25.15
2022-08-19T17:59:44.066Z,25.02
2022-08-19T18:04:51.133Z,25.00
2022-08-19T18:10:01.771Z,24.75
2022-08-19T18:15:10.153Z,24.61
2022-08-19T18:20:14.312Z,24.37
2022-08-19T18:25:28.217Z,24.27
2022-08-19T18:30:34.455Z,24.06
2022-08-19T18:35:39.388Z,23.95
2022-08-19T18:41:02.780Z,23.87
2022-08-19T18:46:36.993Z,23.79
2022-08-19T18:51:42.355Z,23.72
2022-08-19T19:01:57.082Z,23.41
2022-08-19T19:07:03.722Z,23.32
2022-08-19T19:12:11.529Z,23.13
2022-08-19T19:17:14.813Z,22.95
2022-08-19T19:22:21.611Z,22.88
2022-08-19T19:27:23.338Z,22.70
2022-08-19T19:32:36.931Z,22.60
2022-08-19T19:37:40.538Z,22.57
2022-08-19T19:42:45.330Z,22.57
2022-08-19T19:47:50.107Z,22.55
2022-08-19T19:52:51.923Z,22.46
2022-08-19T19:57:54.960Z,22.35
2022-08-19T20:02:56.908Z,22.15
2022-08-19T20:08:19.709Z,22.10
2022-08-19T20:13:23.746Z,21.92
2022-08-19T20:18:26.064Z,21.78
2022-08-19T20:23:31.167Z,21.70
2022-08-19T20:28:36.937Z,21.60
2022-08-19T20:33:41.949Z,21.77
2022-08-19T20:38:43.826Z,21.80
2022-08-19T20:43:46.172Z,21.75
2022-08-19T20:48:48.011Z,21.71
2022-08-19T20:53:53.809Z,21.68
2022-08-19T20:58:59.940Z,21.60
2022-08-19T21:04:05.401Z,21.50
2022-08-19T21:09:09.396Z,21.43
2022-08-19T21:14:19.531Z,21.37
2022-08-19T21:19:29.547Z,21.32
2022-08-19T21:24:34.073Z,21.19
2022-08-19T21:29:39.046Z,21.18
2022-08-19T21:34:46.881Z,21.13
2022-08-19T21:39:49.584Z,21.09
2022-08-19T21:45:00.224Z,21.05
2022-08-19T21:50:05.487Z,21.02
2022-08-19T21:55:12.146Z,20.98
2022-08-19T22:00:20.439Z,20.98
2022-08-19T22:05:33.307Z,20.91
2022-08-19T22:10:37.552Z,20.89
2022-08-19T22:15:42.504Z,20.88
2022-08-19T22:20:45.076Z,20.87
2022-08-19T22:25:47.328Z,20.85
2022-08-19T22:30:51.333Z,20.83
2022-08-19T22:35:55.831Z,20.83
2022-08-19T22:41:00.137Z,20.81
2022-08-19T22:46:02.469Z,20.82
2022-08-19T22:51:25.295Z,20.78
2022-08-19T22:56:32.967Z,20.75
2022-08-19T23:01:41.752Z,20.74
2022-08-19T23:06:43.516Z,20.75
2022-08-19T23:11:48.028Z,20.72
2022-08-19T23:16:54.120Z,20.71
2022-08-19T23:22:00.739Z,20.69
2022-08-19T23:27:23.061Z,20.64
2022-08-19T23:32:26.240Z,20.60
2022-08-19T23:37:37.166Z,20.57
2022-08-19T23:42:47.185Z,20.56
2022-08-19T23:47:48.963Z,20.55
2022-08-19T23:52:57.391Z,20.52
2022-08-19T23:58:05.574Z,20.50
